Time;durP1;ratioP1;P1;durP2;ratioP2;P2;SDS_P1;SDS_P2;PMS_P1;PMS_P2;Temp;Humidity;BMP_temperature;BMP_pressure;BME280_temperature;BME280_humidity;BME280_pressure;Samples;Min_cycle;Max_cycle;Signal;HPM_P1;HPM_P2
2021/08/05 00:01:20;;;;;;;3.25;2.42;;;15.20;99.90;;;;;;5063452;28;20044;-72
2021/08/05 00:03:46;;;;;;;2.78;2.45;;;15.20;99.90;;;;;;5061191;28;20040;-72
2021/08/05 00:06:12;;;;;;;3.42;2.53;;;15.20;99.90;;;;;;5060098;28;21046;-72
2021/08/05 00:08:37;;;;;;;2.65;2.45;;;15.20;99.90;;;;;;5062638;28;20068;-72
2021/08/05 00:11:03;;;;;;;3.05;2.38;;;15.10;99.90;;;;;;5063908;28;20055;-72
2021/08/05 00:13:29;;;;;;;4.60;2.55;;;15.10;99.90;;;;;;5061820;28;20489;-72
2021/08/05 00:15:55;;;;;;;5.50;3.05;;;15.10;99.90;;;;;;5062391;28;20044;-72
2021/08/05 00:18:22;;;;;;;3.40;2.45;;;15.10;99.90;;;;;;5064114;28;20502;-72
2021/08/05 00:20:48;;;;;;;3.05;2.75;;;15.00;99.90;;;;;;5064014;28;20689;-72
2021/08/05 00:23:14;;;;;;;3.55;2.15;;;15.00;99.90;;;;;;5062054;28;20098;-72
2021/08/05 00:25:40;;;;;;;6.63;2.92;;;15.00;99.90;;;;;;5063735;28;20592;-72
2021/08/05 00:28:06;;;;;;;3.97;2.58;;;14.90;99.90;;;;;;5062962;28;20040;-72
2021/08/05 00:30:32;;;;;;;3.25;2.95;;;14.90;99.90;;;;;;5063007;28;20470;-72
2021/08/05 00:32:58;;;;;;;4.47;2.40;;;14.80;99.90;;;;;;5062567;28;20044;-72
2021/08/05 00:35:24;;;;;;;6.40;3.30;;;14.90;99.90;;;;;;5064311;28;20043;-72
2021/08/05 00:37:49;;;;;;;3.55;2.90;;;14.80;99.90;;;;;;5064387;28;20067;-72
2021/08/05 00:40:18;;;;;;;4.43;3.55;;;14.80;99.90;;;;;;5065569;28;20910;-72
2021/08/05 00:42:49;;;;;;;3.22;2.83;;;14.80;99.90;;;;;;5061889;28;20063;-72
2021/08/05 00:45:15;;;;;;;4.05;2.83;;;14.80;99.90;;;;;;5061543;28;20090;-72
2021/08/05 00:47:42;;;;;;;6.05;3.10;;;14.80;99.90;;;;;;5063034;28;20049;-72
2021/08/05 00:50:08;;;;;;;4.18;2.88;;;14.80;99.90;;;;;;5065314;28;20040;-72
2021/08/05 00:52:34;;;;;;;5.03;3.03;;;14.70;99.90;;;;;;5062480;28;20133;-72
2021/08/05 00:55:00;;;;;;;3.15;2.83;;;14.70;99.90;;;;;;5060769;28;20537;-73
2021/08/05 00:57:26;;;;;;;4.55;3.38;;;14.70;99.90;;;;;;5062861;28;20044;-72
2021/08/05 00:59:51;;;;;;;5.00;3.55;;;14.70;99.90;;;;;;5062492;28;20052;-72
2021/08/05 01:02:20;;;;;;;2.80;2.50;;;14.70;99.90;;;;;;5061391;28;20032;-72
2021/08/05 01:04:49;;;;;;;3.38;3.08;;;14.70;99.90;;;;;;5060614;28;20123;-73
2021/08/05 01:07:15;;;;;;;6.40;3.53;;;14.70;99.90;;;;;;5065964;28;20040;-72
2021/08/05 01:09:48;;;;;;;4.20;2.88;;;14.70;99.90;;;;;;5064259;28;20041;-72
2021/08/05 01:12:48;;;;;;;3.30;3.00;;;14.70;99.90;;;;;;5065361;28;20479;-72
2021/08/05 01:15:18;;;;;;;4.07;3.40;;;14.60;99.90;;;;;;5065139;28;20504;-72
2021/08/05 01:17:55;;;;;;;4.68;3.38;;;14.50;99.90;;;;;;5066393;28;20033;-72
2021/08/05 01:20:22;;;;;;;3.55;3.22;;;14.50;99.90;;;;;;5066215;28;20080;-72
2021/08/05 01:23:09;;;;;;;2.95;2.55;;;14.40;99.90;;;;;;5065629;28;20557;-72
2021/08/05 01:25:43;;;;;;;4.43;2.75;;;14.40;99.90;;;;;;5064921;28;20128;-72
2021/08/05 01:28:10;;;;;;;4.00;2.88;;;14.30;99.90;;;;;;5065387;28;20079;-72
2021/08/05 01:30:41;;;;;;;4.70;3.35;;;14.20;99.90;;;;;;5066578;28;20044;-72
2021/08/05 01:33:08;;;;;;;5.40;3.20;;;14.10;99.90;;;;;;5064292;28;20055;-72
2021/08/05 01:35:35;;;;;;;3.63;3.33;;;14.10;99.90;;;;;;5064835;28;20029;-72
2021/08/05 01:38:02;;;;;;;6.10;3.45;;;14.00;99.90;;;;;;5067322;28;20036;-72
2021/08/05 01:40:29;;;;;;;3.97;3.03;;;13.90;99.90;;;;;;5066002;28;20131;-72
2021/08/05 01:42:56;;;;;;;3.85;3.25;;;13.90;99.90;;;;;;5066648;28;20067;-72
2021/08/05 01:45:22;;;;;;;4.30;3.90;;;13.90;99.90;;;;;;5064671;28;20356;-72
2021/08/05 01:47:49;;;;;;;5.03;3.90;;;13.90;99.90;;;;;;5065092;28;20043;-72
2021/08/05 01:50:16;;;;;;;3.17;2.88;;;13.80;99.90;;;;;;5062462;28;20478;-72
2021/08/05 01:52:42;;;;;;;6.55;3.35;;;13.70;99.90;;;;;;5065782;28;20033;-72
2021/08/05 01:55:10;;;;;;;5.32;3.15;;;13.60;99.90;;;;;;5063143;28;20044;-72
2021/08/05 01:57:36;;;;;;;6.22;2.92;;;13.60;99.90;;;;;;5063239;28;20048;-72
2021/08/05 02:00:09;;;;;;;2.47;2.22;;;13.50;99.90;;;;;;5066521;28;20040;-72
2021/08/05 02:02:36;;;;;;;2.72;2.53;;;13.40;99.90;;;;;;5064305;28;20093;-72
2021/08/05 02:05:02;;;;;;;2.60;2.40;;;13.30;99.90;;;;;;5063644;28;20049;-72
2021/08/05 02:07:32;;;;;;;4.10;2.92;;;13.20;99.90;;;;;;5063173;28;20115;-72
2021/08/05 02:10:26;;;;;;;3.70;3.10;;;13.20;99.90;;;;;;5064707;28;20044;-72
2021/08/05 02:12:59;;;;;;;4.90;3.22;;;13.20;99.90;;;;;;5058674;28;20052;-72
2021/08/05 02:15:26;;;;;;;4.82;4.43;;;13.30;99.90;;;;;;5064313;28;20045;-72
2021/08/05 02:17:53;;;;;;;5.07;4.57;;;13.30;99.90;;;;;;5064197;28;20596;-72
2021/08/05 02:20:19;;;;;;;5.13;4.32;;;13.30;99.90;;;;;;5064105;28;20098;-72
2021/08/05 02:22:46;;;;;;;4.25;3.85;;;13.30;99.90;;;;;;5068281;28;20512;-72
2021/08/05 02:25:12;;;;;;;4.75;4.35;;;13.40;99.90;;;;;;5065634;28;20044;-72
2021/08/05 02:27:43;;;;;;;5.13;4.63;;;13.40;99.90;;;;;;5067976;28;20395;-72
2021/08/05 02:30:10;;;;;;;5.18;4.70;;;13.40;99.90;;;;;;5068113;28;20048;-72
2021/08/05 02:32:37;;;;;;;8.68;4.80;;;13.40;99.90;;;;;;5070971;28;20040;-72
2021/08/05 02:35:06;;;;;;;6.00;5.35;;;13.50;99.90;;;;;;5067935;28;20579;-72
2021/08/05 02:37:32;;;;;;;6.75;5.38;;;13.40;99.90;;;;;;5066469;28;20036;-72
2021/08/05 02:39:57;;;;;;;5.90;5.30;;;13.50;99.90;;;;;;5067910;28;20028;-72
2021/08/05 02:42:24;;;;;;;5.88;5.20;;;13.40;99.90;;;;;;5068072;28;20035;-72
2021/08/05 02:44:51;;;;;;;6.97;5.03;;;13.50;99.90;;;;;;5069408;28;20390;-72
2021/08/05 02:47:18;;;;;;;6.07;5.57;;;13.50;99.90;;;;;;5068369;28;20037;-72
2021/08/05 02:49:46;;;;;;;10.75;5.55;;;13.40;99.90;;;;;;5067333;28;20048;-72
2021/08/05 02:52:12;;;;;;;7.15;5.55;;;13.40;99.90;;;;;;5068061;28;20036;-72
2021/08/05 02:54:39;;;;;;;6.90;5.10;;;13.50;99.90;;;;;;5070016;28;20040;-72
2021/08/05 02:57:05;;;;;;;6.47;5.88;;;13.50;99.90;;;;;;5068723;28;20482;-72
2021/08/05 02:59:31;;;;;;;8.68;5.57;;;13.50;99.90;;;;;;5066028;28;20536;-72
2021/08/05 03:01:58;;;;;;;6.43;5.70;;;13.50;99.90;;;;;;5068395;28;20486;-73
2021/08/05 03:04:30;;;;;;;6.70;5.13;;;13.50;99.90;;;;;;5068792;28;20036;-72
2021/08/05 03:06:56;;;;;;;6.90;5.97;;;13.50;99.90;;;;;;5067585;28;20040;-72
2021/08/05 03:09:23;;;;;;;9.27;6.68;;;13.50;99.90;;;;;;5065956;28;20143;-72
2021/08/05 03:11:49;;;;;;;6.45;5.95;;;13.40;99.90;;;;;;5069787;28;20111;-72
2021/08/05 03:14:15;;;;;;;6.30;5.70;;;13.50;99.90;;;;;;5069410;28;20036;-72
2021/08/05 03:16:40;;;;;;;7.72;5.75;;;13.50;99.90;;;;;;5068765;28;20557;-72
2021/08/05 03:19:06;;;;;;;7.28;5.38;;;13.50;99.90;;;;;;5064945;28;20033;-73
2021/08/05 03:21:32;;;;;;;6.45;5.85;;;13.50;99.90;;;;;;5065457;28;20029;-73
2021/08/05 03:23:57;;;;;;;7.45;6.10;;;13.60;99.90;;;;;;5068236;28;20036;-72
2021/08/05 03:26:23;;;;;;;7.15;6.05;;;13.60;99.90;;;;;;5064507;28;20029;-72
2021/08/05 03:28:49;;;;;;;7.82;5.88;;;13.60;99.90;;;;;;5069517;28;20475;-72
2021/08/05 03:31:14;;;;;;;6.63;5.95;;;13.60;99.90;;;;;;5068530;28;20066;-72
2021/08/05 03:33:40;;;;;;;6.97;6.20;;;13.60;99.90;;;;;;5067009;28;20123;-72
2021/08/05 03:36:06;;;;;;;8.02;6.47;;;13.60;99.90;;;;;;5067917;28;20135;-72
2021/08/05 03:38:31;;;;;;;7.32;6.60;;;13.50;99.90;;;;;;5068261;28;20037;-72
2021/08/05 03:40:57;;;;;;;7.53;6.03;;;13.60;99.90;;;;;;5065888;28;20762;-72
2021/08/05 03:43:23;;;;;;;7.38;6.70;;;13.60;99.90;;;;;;5068820;28;20040;-73
2021/08/05 03:45:48;;;;;;;8.77;6.22;;;13.70;99.90;;;;;;5067680;28;20033;-72
2021/08/05 03:48:14;;;;;;;7.78;6.88;;;13.70;99.90;;;;;;5069498;28;20437;-73
2021/08/05 03:50:40;;;;;;;7.40;6.70;;;13.70;99.90;;;;;;5063458;28;20068;-73
2021/08/05 03:53:06;;;;;;;9.32;7.20;;;13.80;99.90;;;;;;5066778;28;20036;-73
2021/08/05 03:55:31;;;;;;;9.23;7.82;;;13.80;99.90;;;;;;5067791;28;20387;-72
2021/08/05 03:57:57;;;;;;;7.97;7.30;;;13.80;99.90;;;;;;5066742;28;20036;-73
2021/08/05 04:00:23;;;;;;;8.65;7.85;;;13.80;99.90;;;;;;5065105;28;20044;-73
2021/08/05 04:02:49;;;;;;;8.68;7.78;;;13.80;99.90;;;;;;5066044;28;20037;-72
2021/08/05 04:05:14;;;;;;;7.97;7.18;;;13.80;99.90;;;;;;5063580;28;20037;-72
2021/08/05 04:07:40;;;;;;;7.78;7.07;;;13.90;99.90;;;;;;5068378;28;20032;-72
2021/08/05 04:10:07;;;;;;;9.90;7.93;;;13.90;99.90;;;;;;5068597;28;20068;-72
2021/08/05 04:12:32;;;;;;;9.00;7.28;;;13.90;99.90;;;;;;5067565;28;20033;-72
2021/08/05 04:14:58;;;;;;;8.70;7.30;;;13.90;99.90;;;;;;5065101;28;20044;-72
2021/08/05 04:17:24;;;;;;;7.40;6.57;;;13.90;99.90;;;;;;5066941;28;20051;-73
2021/08/05 04:19:49;;;;;;;9.80;7.88;;;14.00;99.90;;;;;;5060960;28;20028;-73
2021/08/05 04:22:15;;;;;;;8.15;6.25;;;14.00;99.90;;;;;;5067657;28;20071;-72
2021/08/05 04:24:41;;;;;;;9.70;7.68;;;14.10;99.90;;;;;;5068600;28;20118;-73
2021/08/05 04:27:07;;;;;;;8.73;7.72;;;14.10;99.90;;;;;;5066909;28;20094;-72
2021/08/05 04:29:33;;;;;;;7.35;6.68;;;14.10;99.90;;;;;;5067100;28;20058;-72
2021/08/05 04:31:58;;;;;;;10.38;7.78;;;14.10;99.90;;;;;;5068142;28;20115;-72
2021/08/05 04:34:24;;;;;;;7.70;7.00;;;14.10;99.90;;;;;;5065200;28;20116;-73
2021/08/05 04:36:50;;;;;;;8.20;7.38;;;14.20;99.90;;;;;;5065983;28;20036;-72
2021/08/05 04:39:15;;;;;;;7.18;6.53;;;14.20;99.90;;;;;;5066350;28;20040;-73
2021/08/05 04:41:41;;;;;;;7.72;7.03;;;14.20;99.90;;;;;;5069123;28;20067;-73
2021/08/05 04:44:07;;;;;;;7.78;7.03;;;14.30;99.90;;;;;;5066913;28;20037;-72
2021/08/05 04:46:32;;;;;;;12.32;7.18;;;14.30;99.90;;;;;;5066374;28;20028;-72
2021/08/05 04:49:01;;;;;;;7.47;6.78;;;14.40;99.90;;;;;;5065248;28;20483;-72
2021/08/05 04:51:28;;;;;;;7.95;7.05;;;14.50;99.90;;;;;;5068537;28;20066;-72
2021/08/05 04:53:54;;;;;;;8.07;7.28;;;14.50;99.90;;;;;;5066275;28;20119;-72
2021/08/05 04:56:20;;;;;;;7.35;6.68;;;14.50;99.90;;;;;;5065151;28;20037;-72
2021/08/05 04:58:46;;;;;;;7.13;6.32;;;14.60;99.90;;;;;;5065943;28;20098;-72
2021/08/05 05:01:12;;;;;;;6.75;6.15;;;14.70;99.90;;;;;;5063792;28;20486;-73
2021/08/05 05:03:39;;;;;;;6.47;5.97;;;14.70;99.90;;;;;;5068217;28;20040;-73
2021/08/05 05:06:05;;;;;;;7.00;6.40;;;14.70;99.90;;;;;;5064005;28;20043;-73
2021/08/05 05:08:30;;;;;;;11.93;8.75;;;14.80;99.90;;;;;;5063015;28;20053;-73
2021/08/05 05:10:56;;;;;;;8.52;7.57;;;14.80;99.90;;;;;;5068655;28;20089;-73
2021/08/05 05:13:22;;;;;;;8.50;7.70;;;14.70;99.90;;;;;;5066798;28;20462;-73
2021/08/05 05:15:48;;;;;;;8.07;7.13;;;14.70;99.90;;;;;;5062991;28;20047;-72
2021/08/05 05:18:16;;;;;;;10.77;8.07;;;14.70;99.90;;;;;;5062503;28;20071;-72
2021/08/05 05:20:43;;;;;;;9.20;8.40;;;14.70;99.90;;;;;;5064342;28;20040;-73
2021/08/05 05:23:09;;;;;;;9.80;7.68;;;14.70;99.90;;;;;;5064059;28;20585;-73
2021/08/05 05:25:36;;;;;;;8.63;7.80;;;14.70;99.90;;;;;;5062028;28;20037;-72
2021/08/05 05:28:02;;;;;;;8.27;7.50;;;14.70;99.90;;;;;;5063457;28;20055;-73
2021/08/05 05:30:27;;;;;;;8.77;7.57;;;14.70;99.90;;;;;;5063687;28;20036;-73
2021/08/05 05:32:54;;;;;;;8.48;7.68;;;14.70;99.90;;;;;;5063589;28;20063;-72
2021/08/05 05:35:20;;;;;;;9.45;8.55;;;14.80;99.90;;;;;;5063995;28;20032;-72
2021/08/05 05:37:49;;;;;;;11.55;8.90;;;14.80;99.90;;;;;;5064342;28;20082;-72
2021/08/05 05:40:15;;;;;;;9.15;8.35;;;14.90;99.90;;;;;;5063196;28;20045;-73
2021/08/05 05:42:41;;;;;;;9.23;8.32;;;15.00;99.90;;;;;;5063322;28;20036;-73
2021/08/05 05:45:09;;;;;;;12.98;11.07;;;15.10;99.90;;;;;;5064039;28;20143;-73
2021/08/05 05:47:35;;;;;;;16.20;14.52;;;15.20;99.90;;;;;;5062927;28;20046;-72
2021/08/05 05:50:01;;;;;;;12.38;11.13;;;15.30;99.90;;;;;;5063948;28;20044;-72
2021/08/05 05:52:26;;;;;;;12.07;10.88;;;15.50;99.90;;;;;;5063598;28;20036;-72
2021/08/05 05:54:52;;;;;;;11.32;9.13;;;15.50;99.90;;;;;;5062048;28;20041;-72
2021/08/05 05:57:18;;;;;;;10.65;9.60;;;15.60;99.90;;;;;;5065361;28;20051;-72
2021/08/05 05:59:44;;;;;;;13.95;12.18;;;15.70;99.90;;;;;;5066686;28;20147;-72
2021/08/05 06:02:10;;;;;;;11.55;10.40;;;16.00;99.90;;;;;;5064915;28;20040;-72
2021/08/05 06:04:36;;;;;;;15.48;12.50;;;16.80;99.90;;;;;;5070360;28;20048;-73
2021/08/05 06:07:01;;;;;;;10.90;9.68;;;17.80;99.90;;;;;;5065570;28;20521;-72
2021/08/05 06:09:27;;;;;;;11.40;8.25;;;18.10;99.90;;;;;;5067046;28;20571;-72
2021/08/05 06:11:53;;;;;;;7.35;6.65;;;18.50;99.90;;;;;;5068118;28;20056;-71
2021/08/05 06:14:18;;;;;;;8.25;7.45;;;19.50;99.90;;;;;;5066457;28;20097;-73
2021/08/05 06:16:44;;;;;;;6.88;6.30;;;20.30;99.90;;;;;;5067613;28;20052;-73
2021/08/05 06:19:11;;;;;;;7.78;7.07;;;20.50;99.90;;;;;;5066220;28;20040;-73
2021/08/05 06:21:43;;;;;;;7.50;6.82;;;20.30;99.90;;;;;;5068327;28;20052;-72
2021/08/05 06:24:12;;;;;;;8.88;6.63;;;20.30;99.90;;;;;;5066493;28;20043;-73
2021/08/05 06:26:40;;;;;;;5.97;5.47;;;20.10;99.90;;;;;;5068310;28;20056;-73
2021/08/05 06:29:07;;;;;;;8.80;6.57;;;20.20;99.90;;;;;;5067586;28;20174;-73
2021/08/05 06:31:34;;;;;;;6.43;5.82;;;20.30;99.90;;;;;;5067646;28;20652;-73
2021/08/05 06:34:04;;;;;;;7.75;5.55;;;20.40;99.90;;;;;;5067496;28;20068;-73
2021/08/05 06:36:30;;;;;;;6.25;5.65;;;20.50;99.90;;;;;;5067122;28;20068;-73
2021/08/05 06:38:55;;;;;;;6.00;5.43;;;20.70;99.90;;;;;;5066387;28;20064;-74
2021/08/05 06:41:21;;;;;;;5.90;5.22;;;20.70;99.90;;;;;;5066422;28;20432;-75
2021/08/05 06:43:47;;;;;;;7.25;4.75;;;20.90;99.90;;;;;;5066250;28;20094;-75
2021/08/05 06:46:13;;;;;;;5.45;4.95;;;21.00;99.90;;;;;;5063025;28;20048;-75
2021/08/05 06:48:39;;;;;;;5.45;4.50;;;21.00;99.90;;;;;;5064839;28;20036;-75
2021/08/05 06:51:04;;;;;;;5.55;3.95;;;21.20;99.90;;;;;;5065548;28;20764;-75
2021/08/05 06:53:30;;;;;;;4.63;4.18;;;21.20;99.90;;;;;;5067213;28;20535;-75
2021/08/05 06:55:56;;;;;;;4.25;3.88;;;21.40;99.90;;;;;;5066906;28;20048;-75
2021/08/05 06:58:22;;;;;;;6.30;3.80;;;21.60;99.90;;;;;;5066649;28;20041;-74
2021/08/05 07:00:49;;;;;;;6.72;4.10;;;21.70;99.90;;;;;;5066056;28;20060;-73
2021/08/05 07:03:15;;;;;;;4.95;4.32;;;21.50;99.90;;;;;;5066420;28;20432;-73
2021/08/05 07:05:41;;;;;;;5.30;3.20;;;21.40;99.90;;;;;;5065921;28;20036;-73
2021/08/05 07:08:06;;;;;;;3.95;3.63;;;21.50;99.90;;;;;;5063433;28;20044;-73
2021/08/05 07:10:32;;;;;;;6.15;4.25;;;21.60;99.90;;;;;;5067225;28;20736;-73
2021/08/05 07:12:58;;;;;;;5.13;4.65;;;21.70;99.90;;;;;;5064947;28;20033;-73
2021/08/05 07:15:24;;;;;;;4.28;3.88;;;21.90;99.90;;;;;;5064664;28;20055;-74
2021/08/05 07:17:49;;;;;;;5.18;4.78;;;22.30;99.90;;;;;;5065877;28;21610;-74
2021/08/05 07:20:17;;;;;;;4.78;3.55;;;22.10;99.90;;;;;;5065893;28;20097;-74
2021/08/05 07:22:44;;;;;;;5.68;4.22;;;22.60;99.90;;;;;;5066170;28;20037;-74
2021/08/05 07:25:11;;;;;;;5.78;4.07;;;22.80;99.90;;;;;;5064581;28;20076;-74
2021/08/05 07:27:38;;;;;;;3.60;3.30;;;22.80;99.90;;;;;;5065414;28;20044;-74
2021/08/05 07:30:07;;;;;;;3.50;3.20;;;23.00;99.90;;;;;;5065636;28;20407;-74
2021/08/05 07:32:33;;;;;;;2.97;2.67;;;23.20;99.90;;;;;;5066703;28;20036;-74
2021/08/05 07:34:58;;;;;;;3.15;2.80;;;23.40;99.70;;;;;;5066439;28;20485;-73
2021/08/05 07:37:25;;;;;;;2.75;2.00;;;23.40;98.90;;;;;;5066695;28;20470;-73
2021/08/05 07:39:50;;;;;;;3.58;2.95;;;23.30;99.00;;;;;;5066549;28;20107;-73
2021/08/05 07:42:18;;;;;;;3.53;3.22;;;23.30;98.90;;;;;;5066429;28;20174;-73
2021/08/05 07:44:44;;;;;;;4.20;3.05;;;23.20;98.10;;;;;;5065629;28;20040;-73
2021/08/05 07:47:10;;;;;;;3.40;2.97;;;22.80;99.00;;;;;;5065456;28;20517;-73
2021/08/05 07:49:35;;;;;;;4.32;3.58;;;22.90;99.80;;;;;;5065850;28;20102;-72
2021/08/05 07:52:01;;;;;;;3.97;3.25;;;22.70;99.90;;;;;;5065871;28;20048;-73
2021/08/05 07:54:27;;;;;;;3.80;3.50;;;22.80;99.90;;;;;;5065084;28;20732;-73
2021/08/05 07:56:53;;;;;;;3.92;3.53;;;22.90;99.90;;;;;;5066639;28;20047;-73
2021/08/05 07:59:19;;;;;;;3.20;3.00;;;23.00;99.90;;;;;;5065835;28;20159;-73
2021/08/05 08:01:44;;;;;;;4.22;3.33;;;23.20;99.90;;;;;;5065942;28;20116;-73
2021/08/05 08:04:10;;;;;;;6.20;5.03;;;23.40;99.90;;;;;;5065949;28;20036;-73
2021/08/05 08:06:36;;;;;;;5.18;3.67;;;23.20;99.20;;;;;;5063770;28;20048;-72
2021/08/05 08:09:03;;;;;;;3.20;2.90;;;22.90;99.60;;;;;;5065763;28;20036;-72
2021/08/05 08:11:30;;;;;;;3.10;2.90;;;23.10;99.90;;;;;;5065794;28;20032;-72
2021/08/05 08:13:56;;;;;;;3.00;2.80;;;23.20;99.80;;;;;;5065631;28;20040;-72
2021/08/05 08:16:23;;;;;;;3.25;2.90;;;23.40;99.90;;;;;;5065074;28;20490;-72
2021/08/05 08:18:49;;;;;;;2.03;1.80;;;23.40;99.30;;;;;;5065246;28;20044;-72
2021/08/05 08:21:16;;;;;;;2.28;1.95;;;23.20;98.50;;;;;;5065148;28;20040;-72
2021/08/05 08:23:42;;;;;;;3.78;1.88;;;23.10;97.80;;;;;;5064311;28;20122;-72
2021/08/05 08:26:08;;;;;;;1.80;1.63;;;23.10;98.20;;;;;;5065644;28;20051;-72
2021/08/05 08:28:34;;;;;;;4.93;2.42;;;23.30;98.20;;;;;;5065782;28;20040;-72
2021/08/05 08:31:00;;;;;;;2.10;1.90;;;23.60;98.30;;;;;;5064039;28;20045;-72
2021/08/05 08:33:25;;;;;;;3.45;2.30;;;24.00;98.20;;;;;;5066113;28;20059;-72
2021/08/05 08:35:51;;;;;;;1.90;1.67;;;24.10;96.90;;;;;;5065258;28;20040;-72
2021/08/05 08:38:19;;;;;;;2.08;1.80;;;23.70;95.30;;;;;;5064546;28;20043;-72
2021/08/05 08:40:45;;;;;;;2.67;1.75;;;23.50;96.30;;;;;;5064721;28;20513;-72
2021/08/05 08:43:11;;;;;;;2.88;2.20;;;23.40;96.40;;;;;;5064630;28;20040;-72
2021/08/05 08:45:38;;;;;;;1.70;1.20;;;23.40;95.90;;;;;;5064625;28;20074;-72
2021/08/05 08:48:06;;;;;;;3.28;1.33;;;23.60;96.90;;;;;;5064713;28;20656;-72
2021/08/05 08:50:33;;;;;;;1.95;1.75;;;23.80;95.50;;;;;;5064463;28;20067;-72
2021/08/05 08:53:07;;;;;;;4.00;1.95;;;24.00;95.00;;;;;;5063816;28;21577;-72
2021/08/05 08:55:33;;;;;;;1.65;1.30;;;24.00;95.40;;;;;;5064005;28;20055;-72
2021/08/05 08:58:04;;;;;;;4.00;0.90;;;24.20;94.40;;;;;;5064683;28;20046;-72
2021/08/05 09:00:31;;;;;;;0.93;0.65;;;24.50;92.80;;;;;;5065028;28;20040;-72
2021/08/05 09:02:58;;;;;;;1.30;0.93;;;24.70;92.90;;;;;;5065153;28;20067;-73
2021/08/05 09:05:28;;;;;;;2.22;1.05;;;24.80;91.30;;;;;;5063743;28;20442;-73
2021/08/05 09:07:54;;;;;;;3.28;1.10;;;25.00;91.30;;;;;;5064572;28;20677;-73
2021/08/05 09:10:21;;;;;;;2.03;1.55;;;24.90;92.40;;;;;;5062397;28;20486;-72
2021/08/05 09:12:55;;;;;;;1.95;1.75;;;24.60;92.50;;;;;;5064040;28;20056;-72
2021/08/05 09:15:40;;;;;;;1.83;1.67;;;24.40;93.20;;;;;;5064410;28;20041;-72
2021/08/05 09:18:28;;;;;;;2.22;1.55;;;24.00;93.30;;;;;;5064287;28;20044;-72
2021/08/05 09:21:08;;;;;;;1.67;1.42;;;23.70;92.60;;;;;;5064376;28;20067;-72
2021/08/05 09:24:01;;;;;;;2.45;1.42;;;23.30;94.00;;;;;;5064418;28;20040;-71
2021/08/05 09:26:47;;;;;;;2.08;1.70;;;23.10;94.70;;;;;;5063197;28;20054;-72
2021/08/05 09:29:14;;;;;;;1.85;1.38;;;23.10;96.20;;;;;;5063668;28;20036;-72
2021/08/05 09:31:44;;;;;;;1.95;1.48;;;22.90;96.40;;;;;;5063119;28;20143;-72
2021/08/05 09:34:12;;;;;;;2.35;1.75;;;22.90;97.30;;;;;;5063545;28;20036;-72
2021/08/05 09:36:40;;;;;;;2.88;2.10;;;22.90;97.90;;;;;;5064050;28;20101;-72
2021/08/05 09:39:28;;;;;;;5.07;1.90;;;22.70;97.50;;;;;;5062327;28;20036;-72
2021/08/05 09:42:12;;;;;;;3.78;2.35;;;22.60;98.80;;;;;;5065475;28;20093;-72
2021/08/05 09:44:37;;;;;;;5.95;2.05;;;22.50;97.70;;;;;;5064703;28;20037;-71
2021/08/05 09:47:21;;;;;;;3.47;2.40;;;22.40;99.00;;;;;;5063565;28;20044;-71
2021/08/05 09:49:47;;;;;;;4.80;2.17;;;22.50;99.90;;;;;;5063998;28;20024;-72
2021/08/05 09:52:14;;;;;;;6.03;3.10;;;22.70;98.20;;;;;;5063396;28;20106;-72
2021/08/05 09:54:48;;;;;;;8.68;2.15;;;22.80;98.30;;;;;;5064101;28;20497;-72
2021/08/05 09:57:23;;;;;;;6.47;2.58;;;22.70;98.50;;;;;;5064335;28;20037;-71
2021/08/05 09:59:58;;;;;;;6.15;2.47;;;22.80;98.70;;;;;;5064128;28;20506;-71
2021/08/05 10:02:25;;;;;;;3.22;2.72;;;22.80;98.90;;;;;;5062990;28;20524;-71
2021/08/05 10:04:52;;;;;;;2.13;1.92;;;22.90;99.10;;;;;;5063769;28;20474;-71
2021/08/05 10:07:18;;;;;;;2.83;2.50;;;22.90;99.50;;;;;;5063570;28;20437;-71
2021/08/05 10:09:45;;;;;;;2.63;1.95;;;22.80;99.40;;;;;;5063460;28;20094;-71
2021/08/05 10:12:15;;;;;;;2.47;2.00;;;22.80;99.90;;;;;;5064213;28;20072;-72
2021/08/05 10:14:42;;;;;;;2.83;2.22;;;22.80;99.90;;;;;;5062717;28;20037;-71
2021/08/05 10:17:09;;;;;;;6.10;2.30;;;22.80;99.90;;;;;;5062515;28;20043;-71
2021/08/05 10:19:40;;;;;;;4.05;2.13;;;22.80;99.10;;;;;;5064424;28;20047;-71
2021/08/05 10:22:09;;;;;;;2.72;2.08;;;22.90;99.60;;;;;;5061674;28;20041;-71
2021/08/05 10:24:44;;;;;;;3.38;1.52;;;22.70;99.40;;;;;;5063691;28;20492;-71
2021/08/05 10:27:11;;;;;;;2.78;1.80;;;22.60;99.70;;;;;;5063208;28;20049;-71
2021/08/05 10:29:39;;;;;;;2.13;1.80;;;22.60;99.60;;;;;;5064560;28;20033;-72
2021/08/05 10:32:07;;;;;;;3.00;1.70;;;22.70;99.90;;;;;;5063760;28;20055;-71
2021/08/05 10:34:34;;;;;;;2.65;1.77;;;22.70;99.90;;;;;;5064652;28;20384;-72
2021/08/05 10:37:04;;;;;;;4.15;1.80;;;22.80;99.40;;;;;;5063114;28;20395;-72
2021/08/05 10:39:31;;;;;;;2.25;1.85;;;23.00;99.10;;;;;;5063449;28;20045;-72
2021/08/05 10:41:59;;;;;;;2.97;2.65;;;23.10;98.70;;;;;;5062746;28;20043;-72
2021/08/05 10:44:26;;;;;;;1.75;1.45;;;22.90;97.60;;;;;;5066685;28;20041;-72
2021/08/05 10:46:52;;;;;;;3.70;1.70;;;23.10;99.20;;;;;;5066358;28;20041;-72
2021/08/05 10:49:18;;;;;;;5.25;1.83;;;23.20;98.80;;;;;;5067509;28;20033;-72
2021/08/05 10:51:43;;;;;;;6.57;1.80;;;23.40;97.50;;;;;;5067195;28;20048;-72
2021/08/05 10:54:09;;;;;;;2.95;2.10;;;23.40;97.40;;;;;;5066295;28;20045;-72
2021/08/05 10:56:35;;;;;;;2.22;1.52;;;23.70;97.40;;;;;;5066854;28;20079;-72
2021/08/05 10:59:05;;;;;;;2.95;1.73;;;23.70;96.60;;;;;;5067354;28;20409;-72
2021/08/05 11:01:42;;;;;;;3.78;2.05;;;23.70;96.10;;;;;;5066647;28;22164;-72
2021/08/05 11:04:29;;;;;;;3.85;2.58;;;23.70;96.60;;;;;;5065849;28;20044;-72
2021/08/05 11:06:55;;;;;;;2.70;2.00;;;23.60;95.30;;;;;;5066874;28;20051;-71
2021/08/05 11:09:26;;;;;;;3.40;2.50;;;23.60;96.90;;;;;;5066790;28;20052;-72
2021/08/05 11:11:53;;;;;;;2.92;2.72;;;23.40;95.90;;;;;;5065188;28;20025;-72
2021/08/05 11:14:24;;;;;;;2.45;2.25;;;23.40;95.20;;;;;;5066829;28;20040;-72
2021/08/05 11:16:50;;;;;;;2.45;2.25;;;23.60;97.40;;;;;;5065853;28;20752;-72
2021/08/05 11:19:23;;;;;;;4.80;2.65;;;23.70;96.80;;;;;;5065996;28;20127;-72
2021/08/05 11:21:49;;;;;;;3.33;2.97;;;23.70;97.30;;;;;;5066547;28;20123;-71
2021/08/05 11:24:42;;;;;;;9.07;3.50;;;23.50;97.00;;;;;;5064728;28;20589;-71
2021/08/05 11:27:15;;;;;;;3.45;3.00;;;23.40;96.30;;;;;;5065546;28;20028;-71
2021/08/05 11:29:41;;;;;;;3.60;3.00;;;23.40;97.90;;;;;;5066690;28;20044;-71
2021/08/05 11:32:35;;;;;;;4.90;3.35;;;23.40;96.30;;;;;;5066211;28;20036;-72
2021/08/05 11:35:04;;;;;;;4.28;2.63;;;23.40;96.50;;;;;;5066132;28;20041;-71
2021/08/05 11:37:31;;;;;;;3.17;2.80;;;23.50;97.20;;;;;;5066132;28;20573;-72
2021/08/05 11:39:59;;;;;;;4.55;2.95;;;23.60;97.40;;;;;;5064878;28;20070;-71
2021/08/05 11:42:29;;;;;;;3.47;2.95;;;23.50;95.60;;;;;;5065474;28;20045;-71
2021/08/05 11:44:58;;;;;;;2.85;2.63;;;23.40;96.60;;;;;;5066528;28;20044;-71
2021/08/05 11:47:38;;;;;;;4.25;3.58;;;23.70;96.10;;;;;;5065424;28;20075;-72
2021/08/05 11:50:07;;;;;;;3.50;3.20;;;24.00;94.30;;;;;;5065419;28;20036;-71
2021/08/05 11:52:48;;;;;;;3.33;2.67;;;24.00;93.50;;;;;;5066067;28;20037;-71
2021/08/05 11:55:33;;;;;;;4.30;2.40;;;24.20;95.00;;;;;;5066659;28;20137;-71
2021/08/05 11:58:01;;;;;;;4.85;2.15;;;24.20;93.80;;;;;;5065871;28;20034;-71
2021/08/05 12:00:30;;;;;;;2.42;2.20;;;23.90;92.70;;;;;;5065518;28;20790;-72
2021/08/05 12:03:07;;;;;;;5.30;2.13;;;24.00;94.90;;;;;;5064922;28;20037;-71
2021/08/05 12:05:41;;;;;;;2.67;2.33;;;23.90;94.40;;;;;;5065394;28;20791;-71
2021/08/05 12:08:07;;;;;;;4.95;2.80;;;23.90;94.40;;;;;;5064414;28;20036;-71
2021/08/05 12:10:37;;;;;;;3.63;1.90;;;24.00;93.30;;;;;;5065180;28;20045;-72
2021/08/05 12:13:11;;;;;;;2.83;2.10;;;24.10;94.50;;;;;;5065933;28;20714;-72
2021/08/05 12:15:39;;;;;;;2.75;2.55;;;24.50;95.10;;;;;;5064025;28;20051;-72
2021/08/05 12:18:16;;;;;;;2.50;2.30;;;24.70;93.70;;;;;;5066220;28;20036;-72
2021/08/05 12:20:50;;;;;;;2.70;2.10;;;25.00;92.60;;;;;;5065646;28;20850;-72
2021/08/05 12:23:36;;;;;;;5.53;1.92;;;25.00;90.50;;;;;;5064707;28;20033;-72
2021/08/05 12:26:11;;;;;;;;;;;25.00;90.80;;;;;;5065579;28;20040;-72
2021/08/05 12:28:40;;;;;;;2.85;1.77;;;24.80;93.20;;;;;;5065128;28;19925;-71
2021/08/05 12:31:12;;;;;;;1.75;1.50;;;24.50;91.30;;;;;;5063595;28;20047;-72
2021/08/05 12:33:40;;;;;;;5.28;1.27;;;24.50;93.00;;;;;;5065958;28;20398;-71
2021/08/05 12:36:12;;;;;;;1.75;1.38;;;24.70;93.60;;;;;;5065671;28;20045;-72
2021/08/05 12:38:52;;;;;;;4.97;1.50;;;24.70;92.20;;;;;;5063977;28;20044;-72
2021/08/05 12:41:25;;;;;;;1.67;1.27;;;24.80;91.20;;;;;;5065026;28;20521;-72
2021/08/05 12:43:58;;;;;;;2.75;1.63;;;24.90;92.60;;;;;;5064374;28;20131;-72
2021/08/05 12:46:24;;;;;;;2.58;1.38;;;25.10;91.90;;;;;;5064376;28;20069;-72
2021/08/05 12:48:54;;;;;;;3.25;1.30;;;25.20;90.90;;;;;;5063825;28;20033;-72
2021/08/05 12:51:20;;;;;;;1.88;1.50;;;25.30;89.50;;;;;;5063743;28;20103;-72